createdAt,value
2022-08-07T16:34:05.966Z,100997.48
2022-08-07T16:38:05.572Z,100997.64
2022-08-07T16:41:41.668Z,100993.70
2022-08-07T16:46:47.319Z,100995.86
2022-08-07T16:49:03.933Z,100999.28
2022-08-07T16:52:50.975Z,100998.73
2022-08-07T16:56:00.180Z,101000.55
2022-08-07T16:59:15.261Z,101001.08
2022-08-07T17:02:10.484Z,101001.27
2022-08-07T17:06:01.577Z,101004.88
2022-08-07T17:09:10.448Z,101005.77
2022-08-07T17:12:33.913Z,101004.85
2022-08-07T17:15:58.341Z,101009.53
2022-08-07T17:18:57.154Z,101014.36
2022-08-07T17:21:55.080Z,101016.52
2022-08-07T17:25:08.303Z,101021.36
2022-08-07T17:28:24.873Z,101025.50
2022-08-07T17:31:44.413Z,101021.35
2022-08-07T17:35:40.465Z,101021.88
2022-08-07T17:38:33.023Z,101019.90
2022-08-07T17:42:02.257Z,101020.05
2022-08-07T17:44:59.444Z,101021.11
2022-08-07T17:47:46.203Z,101023.61
2022-08-07T17:51:05.637Z,101025.93
2022-08-07T17:54:01.729Z,101029.66
2022-08-07T18:01:36.604Z,101034.21
2022-08-07T18:08:24.431Z,101037.52
2022-08-07T18:12:17.811Z,101042.86
2022-08-07T18:15:53.619Z,101043.88
2022-08-07T18:21:03.599Z,101046.34
2022-08-07T18:22:54.616Z,101045.02
2022-08-07T18:30:08.344Z,101045.81
2022-08-07T18:33:15.492Z,101045.92
2022-08-07T18:36:05.989Z,101052.25
2022-08-07T18:40:05.067Z,101052.34
2022-08-07T18:42:43.378Z,101060.10
2022-08-07T18:46:29.192Z,101064.97
2022-08-07T18:50:30.475Z,101064.48
2022-08-07T18:52:56.750Z,101061.80
2022-08-07T18:55:57.669Z,101065.98
2022-08-07T18:58:58.364Z,101069.06
2022-08-07T19:02:18.671Z,101068.19
2022-08-07T19:05:14.897Z,101070.36
2022-08-07T19:08:07.824Z,101069.85
2022-08-07T19:11:01.069Z,101073.48
2022-08-07T19:14:23.737Z,101076.68
2022-08-07T19:17:07.956Z,101078.28
2022-08-07T19:20:29.798Z,101078.52
2022-08-07T19:23:18.729Z,101077.99
2022-08-07T19:26:24.008Z,101075.17
2022-08-07T19:31:05.415Z,101076.73
2022-08-07T19:32:17.393Z,101077.02
2022-08-07T19:35:06.778Z,101075.27
2022-08-07T19:37:57.323Z,101076.73
2022-08-07T19:40:49.711Z,101076.95
2022-08-07T19:43:49.291Z,101075.76
2022-08-07T19:46:37.086Z,101074.55
2022-08-07T19:49:18.941Z,101077.89
2022-08-07T19:52:36.611Z,101084.10
2022-08-07T19:55:20.424Z,101083.84
2022-08-07T19:58:12.818Z,101082.48
2022-08-07T20:00:55.590Z,101083.93
2022-08-07T20:03:46.806Z,101081.70
2022-08-07T20:06:31.086Z,101082.61
2022-08-07T20:10:35.427Z,101080.72
2022-08-07T20:12:34.503Z,101082.73
2022-08-07T20:15:23.824Z,101083.67
2022-08-07T20:18:32.650Z,101088.38
2022-08-07T20:21:22.441Z,101086.27
2022-08-07T20:24:01.586Z,101083.88
2022-08-07T20:26:52.188Z,101083.51
2022-08-07T20:29:48.855Z,101087.58
2022-08-07T20:32:47.939Z,101089.75
2022-08-07T20:35:34.875Z,101091.71
2022-08-07T20:39:00.325Z,101090.54
2022-08-07T20:41:40.717Z,101094.02
2022-08-07T20:44:13.067Z,101089.47
2022-08-07T20:47:04.225Z,101090.27
2022-08-07T20:50:30.784Z,101092.52
2022-08-07T20:53:14.765Z,101094.89
2022-08-07T20:56:02.032Z,101093.46
2022-08-07T20:58:59.263Z,101092.72
2022-08-07T21:01:55.457Z,101092.65
2022-08-07T21:04:58.237Z,101090.50
2022-08-07T21:08:01.153Z,101092.66
2022-08-07T21:10:44.794Z,101089.23
2022-08-07T21:13:24.576Z,101087.83
2022-08-07T21:16:25.558Z,101086.91
2022-08-07T21:19:23.926Z,101087.64
2022-08-07T21:22:28.198Z,101090.02
2022-08-07T21:25:39.008Z,101086.23
2022-08-07T21:29:02.300Z,101087.77
2022-08-07T21:32:43.928Z,101090.34
2022-08-07T21:36:05.023Z,101094.35
2022-08-07T21:39:45.842Z,101095.92
2022-08-07T21:42:32.091Z,101093.79
2022-08-07T21:46:08.776Z,101092.87
2022-08-07T21:48:27.944Z,101093.91
2022-08-07T21:51:51.380Z,101094.98
2022-08-07T21:54:43.360Z,101096.67
2022-08-07T21:57:44.749Z,101097.67
2022-08-07T22:00:22.723Z,101093.83
2022-08-07T22:03:30.906Z,101091.52
2022-08-07T22:06:35.753Z,101090.48
2022-08-07T22:09:26.433Z,101095.61
2022-08-07T22:12:24.717Z,101094.14
2022-08-07T22:16:45.174Z,101100.57
2022-08-07T22:18:35.713Z,101101.80
2022-08-07T22:22:02.589Z,101101.35
2022-08-07T22:25:10.841Z,101099.88
2022-08-07T22:28:31.270Z,101098.08
2022-08-07T22:31:58.915Z,101095.08
2022-08-07T22:34:49.745Z,101103.58
2022-08-07T22:38:12.896Z,101101.03
2022-08-07T22:41:07.653Z,101098.08
2022-08-07T22:43:56.078Z,101098.14
2022-08-07T22:47:02.191Z,101099.67
2022-08-07T22:49:56.889Z,101102.39
2022-08-07T22:53:02.958Z,101102.55
2022-08-07T22:56:08.537Z,101107.92
2022-08-07T22:59:26.247Z,101111.02
2022-08-07T23:02:16.635Z,101106.39
2022-08-07T23:06:08.221Z,101115.05
2022-08-07T23:08:24.454Z,101117.33
2022-08-07T23:11:46.585Z,101118.70
2022-08-07T23:14:38.101Z,101119.41
2022-08-07T23:17:31.787Z,101117.95
2022-08-07T23:20:40.735Z,101121.56
2022-08-07T23:24:05.087Z,101120.45
2022-08-07T23:27:08.278Z,101121.83
2022-08-07T23:30:38.576Z,101123.26
2022-08-07T23:34:33.727Z,101127.17
2022-08-07T23:37:22.267Z,101129.37
2022-08-07T23:40:17.415Z,101127.80
2022-08-07T23:43:23.057Z,101129.92
2022-08-07T23:46:14.171Z,101130.55
2022-08-07T23:49:15.812Z,101130.99
2022-08-07T23:53:08.780Z,101129.52
2022-08-07T23:55:51.880Z,101128.93
2022-08-07T23:58:37.214Z,101131.18
